Time;durP1;ratioP1;P1;durP2;ratioP2;P2;SDS_P1;SDS_P2;PMS_P1;PMS_P2;Temp;Humidity;BMP_temperature;BMP_pressure;BME280_temperature;BME280_humidity;BME280_pressure;Samples;Min_cycle;Max_cycle;Signal;HPM_P1;HPM_P2
2021/03/20 00:00:26;;;;;;;13.07;5.07;;;1.80;68.20;;;;;;5070852;28;19908;-67
2021/03/20 00:02:52;;;;;;;10.07;5.57;;;1.80;68.30;;;;;;5070672;28;20052;-67
2021/03/20 00:05:17;;;;;;;;;;;1.70;68.30;;;;;;5070964;28;20028;-67
2021/03/20 00:07:43;;;;;;;9.65;4.63;;;1.70;68.00;;;;;;5070620;28;20351;-66
2021/03/20 00:10:12;;;;;;;;;;;1.70;67.60;;;;;;5071112;28;20448;-67
2021/03/20 00:12:39;;;;;;;12.50;6.00;;;1.70;67.40;;;;;;5070760;28;19908;-66
2021/03/20 00:15:06;;;;;;;12.25;5.70;;;1.70;67.20;;;;;;5068909;28;20330;-68
2021/03/20 00:17:32;;;;;;;9.43;4.70;;;1.70;67.50;;;;;;5070504;28;20028;-66
2021/03/20 00:19:58;;;;;;;;;;;1.60;67.70;;;;;;5070870;28;20028;-67
2021/03/20 00:22:23;;;;;;;11.98;5.60;;;1.70;67.00;;;;;;5070378;28;19917;-67
2021/03/20 00:24:49;;;;;;;;;;;1.70;66.50;;;;;;5070778;28;20055;-67
2021/03/20 00:27:14;;;;;;;14.32;5.18;;;1.70;66.50;;;;;;5070173;28;19912;-66
2021/03/20 00:29:40;;;;;;;;;;;1.70;65.80;;;;;;5070898;28;20044;-67
2021/03/20 00:32:06;;;;;;;10.68;4.95;;;1.70;65.30;;;;;;5070289;28;20447;-67
2021/03/20 00:34:32;;;;;;;8.82;3.75;;;1.70;65.90;;;;;;5070142;28;20108;-66
2021/03/20 00:36:57;;;;;;;;;;;1.80;65.20;;;;;;5070471;28;20139;-66
2021/03/20 00:39:23;;;;;;;9.65;4.72;;;1.80;64.40;;;;;;5068935;28;19905;-65
2021/03/20 00:41:48;;;;;;;;;;;1.80;64.30;;;;;;5070280;28;20059;-67
2021/03/20 00:44:14;;;;;;;9.27;4.68;;;1.80;65.00;;;;;;5070170;28;19913;-66
2021/03/20 00:46:40;;;;;;;;;;;1.80;64.60;;;;;;5070284;28;20032;-67
2021/03/20 00:49:05;;;;;;;8.43;4.05;;;1.80;64.30;;;;;;5069673;28;19965;-66
2021/03/20 00:51:31;;;;;;;;;;;1.70;64.60;;;;;;5070497;28;20031;-66
2021/03/20 00:53:57;;;;;;;8.45;4.55;;;1.80;63.80;;;;;;5069765;28;20373;-67
2021/03/20 00:56:22;;;;;;;;;;;1.80;64.50;;;;;;5070192;28;20032;-67
2021/03/20 00:58:48;;;;;;;10.55;5.00;;;1.80;64.50;;;;;;5069727;28;19908;-67
2021/03/20 01:01:15;;;;;;;;;;;1.70;64.00;;;;;;5068629;28;20044;-66
2021/03/20 01:03:41;;;;;;;9.52;5.20;;;1.70;63.80;;;;;;5069707;28;19912;-67
2021/03/20 01:06:09;;;;;;;7.97;4.85;;;1.60;64.20;;;;;;5069598;28;20077;-67
2021/03/20 01:08:36;;;;;;;9.52;4.68;;;1.60;64.40;;;;;;5069611;28;20032;-67
2021/03/20 01:11:03;;;;;;;10.50;3.92;;;1.70;63.60;;;;;;5069317;28;20455;-66
2021/03/20 01:13:29;;;;;;;8.98;4.72;;;1.80;61.90;;;;;;5068055;28;20458;-67
2021/03/20 01:15:54;;;;;;;;;;;1.80;61.80;;;;;;5068490;28;20032;-66
2021/03/20 01:18:20;;;;;;;10.65;5.45;;;1.70;62.20;;;;;;5069410;28;20330;-67
2021/03/20 01:20:46;;;;;;;;;;;1.70;62.50;;;;;;5068369;28;20070;-66
2021/03/20 01:23:12;;;;;;;11.48;5.85;;;1.70;61.80;;;;;;5069056;28;20030;-66
2021/03/20 01:25:38;;;;;;;12.95;7.28;;;1.70;61.60;;;;;;5069286;28;20028;-67
2021/03/20 01:28:03;;;;;;;;;;;1.80;62.10;;;;;;5070055;28;20031;-66
2021/03/20 01:30:33;;;;;;;9.85;4.72;;;1.90;61.50;;;;;;5069043;28;19920;-66
2021/03/20 01:32:59;;;;;;;12.60;6.07;;;1.80;61.50;;;;;;5067717;28;20482;-67
2021/03/20 01:35:25;;;;;;;13.20;6.95;;;1.60;62.20;;;;;;5068911;28;20027;-67
2021/03/20 01:37:50;;;;;;;;;;;1.70;62.80;;;;;;5069403;28;20107;-67
2021/03/20 01:40:21;;;;;;;11.60;4.75;;;1.70;62.40;;;;;;5068901;28;20003;-67
2021/03/20 01:42:47;;;;;;;12.57;6.40;;;1.70;62.40;;;;;;5068761;28;20432;-67
2021/03/20 01:45:18;;;;;;;10.25;5.20;;;1.50;62.80;;;;;;5067275;28;20488;-66
2021/03/20 01:47:52;;;;;;;11.57;5.40;;;1.50;63.70;;;;;;5067314;28;20024;-66
2021/03/20 01:50:26;;;;;;;10.88;5.32;;;1.40;63.60;;;;;;5068712;28;20499;-67
2021/03/20 01:52:56;;;;;;;10.23;5.25;;;1.40;63.40;;;;;;5068675;28;20107;-66
2021/03/20 01:55:24;;;;;;;10.35;5.03;;;1.30;63.30;;;;;;5068433;28;20063;-66
2021/03/20 01:57:57;;;;;;;9.18;4.90;;;1.20;64.10;;;;;;5068623;28;20086;-67
2021/03/20 02:00:34;;;;;;;11.73;4.90;;;1.10;64.40;;;;;;5068541;28;20434;-65
2021/03/20 02:03:06;;;;;;;8.52;4.18;;;1.00;64.30;;;;;;5068237;28;20032;-66
2021/03/20 02:05:32;;;;;;;10.77;4.75;;;0.90;64.80;;;;;;5068434;28;20032;-66
2021/03/20 02:08:01;;;;;;;11.75;6.28;;;0.80;65.60;;;;;;5068349;28;20032;-67
2021/03/20 02:10:30;;;;;;;9.82;4.68;;;0.70;65.40;;;;;;5068296;28;20035;-66
2021/03/20 02:13:03;;;;;;;11.25;5.25;;;0.70;65.30;;;;;;5068263;28;20035;-66
2021/03/20 02:15:44;;;;;;;8.50;4.45;;;0.60;65.50;;;;;;5068364;28;20551;-67
2021/03/20 02:18:28;;;;;;;10.23;5.05;;;0.60;65.60;;;;;;5068333;28;20036;-65
2021/03/20 02:21:08;;;;;;;8.23;4.28;;;0.60;64.60;;;;;;5068164;28;20033;-66
2021/03/20 02:24:07;;;;;;;16.33;5.40;;;0.60;64.10;;;;;;5066672;28;20055;-66
2021/03/20 02:27:07;;;;;;;8.45;4.72;;;0.50;64.20;;;;;;5068119;28;20028;-66
2021/03/20 02:30:09;;;;;;;9.60;5.05;;;0.50;64.10;;;;;;5068193;28;20500;-66
2021/03/20 02:32:59;;;;;;;10.20;4.75;;;0.50;64.00;;;;;;5068060;28;20035;-67
2021/03/20 02:35:49;;;;;;;10.68;4.97;;;0.40;64.10;;;;;;5067939;28;20123;-67
2021/03/20 02:38:41;;;;;;;9.93;3.97;;;0.30;64.20;;;;;;5067978;28;20048;-67
2021/03/20 02:41:10;;;;;;;13.88;5.60;;;0.30;64.90;;;;;;5067625;28;20410;-65
2021/03/20 02:43:57;;;;;;;15.65;6.93;;;0.10;65.40;;;;;;5066412;28;20113;-66
2021/03/20 02:46:37;;;;;;;18.05;7.47;;;0.10;66.10;;;;;;5067995;28;20063;-67
2021/03/20 02:49:17;;;;;;;11.80;5.63;;;0.00;67.20;;;;;;5066067;28;20399;-67
2021/03/20 02:52:19;;;;;;;11.02;5.15;;;-0.10;67.70;;;;;;5067720;28;20632;-67
2021/03/20 02:55:13;;;;;;;10.02;5.38;;;-0.10;68.60;;;;;;5067594;28;20032;-66
2021/03/20 02:58:00;;;;;;;12.18;6.30;;;-0.20;68.60;;;;;;5065840;28;20500;-66
2021/03/20 03:00:34;;;;;;;13.15;6.68;;;-0.30;68.60;;;;;;5067233;28;20508;-67
2021/03/20 03:03:02;;;;;;;15.15;6.25;;;-0.40;69.10;;;;;;5067314;28;20042;-68
2021/03/20 03:05:36;;;;;;;13.50;5.80;;;-0.40;69.40;;;;;;5067558;28;20025;-67
2021/03/20 03:08:09;;;;;;;12.48;5.55;;;-0.40;69.60;;;;;;5067486;28;20516;-66
2021/03/20 03:10:40;;;;;;;11.43;5.60;;;-0.50;69.70;;;;;;5067620;28;20052;-64
2021/03/20 03:13:14;;;;;;;12.57;5.80;;;-0.50;70.00;;;;;;5067059;28;20114;-65
2021/03/20 03:15:43;;;;;;;10.65;5.35;;;-0.50;70.00;;;;;;5066148;28;20075;-67
2021/03/20 03:18:20;;;;;;;9.80;5.05;;;-0.50;69.90;;;;;;5067597;28;20102;-67
2021/03/20 03:20:50;;;;;;;8.30;4.18;;;-0.50;69.90;;;;;;5066073;28;20124;-66
2021/03/20 03:23:30;;;;;;;11.27;5.03;;;-0.40;69.50;;;;;;5067303;28;20118;-67
2021/03/20 03:26:03;;;;;;;13.32;4.97;;;-0.40;69.30;;;;;;5067602;28;20016;-66
2021/03/20 03:28:30;;;;;;;7.60;4.00;;;-0.40;69.10;;;;;;5066096;28;20440;-66
2021/03/20 03:30:58;;;;;;;8.98;4.60;;;-0.30;68.90;;;;;;5067342;28;20099;-67
2021/03/20 03:33:31;;;;;;;9.05;4.45;;;-0.30;68.40;;;;;;5067272;28;20033;-67
2021/03/20 03:36:07;;;;;;;11.90;5.70;;;-0.20;68.30;;;;;;5067168;28;20028;-67
2021/03/20 03:38:47;;;;;;;12.80;6.55;;;-0.20;68.20;;;;;;5067647;28;20036;-67
2021/03/20 03:41:17;;;;;;;15.90;7.53;;;-0.20;68.20;;;;;;5066898;28;20059;-67
2021/03/20 03:43:44;;;;;;;18.77;8.00;;;-0.10;68.00;;;;;;5067146;28;20122;-66
2021/03/20 03:46:11;;;;;;;18.48;8.95;;;-0.10;67.60;;;;;;5067458;28;20509;-67
2021/03/20 03:48:36;;;;;;;17.83;8.90;;;0.00;67.40;;;;;;5067027;28;20039;-67
2021/03/20 03:51:10;;;;;;;;;;;0.00;67.10;;;;;;5067441;28;20040;-67
2021/03/20 03:53:36;;;;;;;18.33;8.43;;;0.00;67.50;;;;;;5067141;28;19908;-66
2021/03/20 03:56:07;;;;;;;;;;;0.10;67.80;;;;;;5067612;28;20031;-67
2021/03/20 03:58:47;;;;;;;17.42;8.50;;;0.10;69.00;;;;;;5067179;28;20369;-67
2021/03/20 04:01:20;;;;;;;15.70;8.77;;;0.10;71.00;;;;;;5066888;28;20119;-67
2021/03/20 04:04:15;;;;;;;14.50;7.85;;;0.10;70.70;;;;;;5067172;28;20089;-66
2021/03/20 04:06:55;;;;;;;20.13;8.13;;;0.10;70.60;;;;;;5067115;28;20029;-67
2021/03/20 04:09:34;;;;;;;13.68;7.43;;;0.10;71.00;;;;;;5066909;28;20055;-66
2021/03/20 04:12:03;;;;;;;21.25;9.95;;;0.20;70.90;;;;;;5067459;28;20560;-66
2021/03/20 04:14:53;;;;;;;18.60;9.48;;;0.20;69.50;;;;;;5070698;28;20032;-66
2021/03/20 04:17:24;;;;;;;14.90;8.85;;;0.20;68.70;;;;;;5070517;28;20473;-67
2021/03/20 04:20:02;;;;;;;14.13;8.07;;;0.20;68.50;;;;;;5070461;28;20029;-66
2021/03/20 04:22:50;;;;;;;13.13;6.85;;;0.20;68.60;;;;;;5070466;28;20037;-67
2021/03/20 04:26:04;;;;;;;31.13;12.18;;;0.20;68.60;;;;;;5059331;28;20040;-67
2021/03/20 04:28:38;;;;;;;33.10;13.65;;;0.10;68.40;;;;;;5027736;28;20052;-68
2021/03/20 04:31:14;;;;;;;32.85;12.88;;;0.10;68.50;;;;;;5027687;28;20072;-67
2021/03/20 04:33:48;;;;;;;39.08;13.93;;;0.10;68.70;;;;;;5053095;28;20052;-67
2021/03/20 04:36:34;;;;;;;53.35;21.25;;;0.10;69.30;;;;;;5070235;28;20028;-67
2021/03/20 04:39:02;;;;;;;87.20;33.80;;;0.20;69.30;;;;;;5069989;28;20029;-66
2021/03/20 04:41:28;;;;;;;70.72;27.40;;;0.20;69.60;;;;;;5070044;28;20783;-66
2021/03/20 04:43:54;;;;;;;36.55;14.52;;;0.20;69.50;;;;;;5069819;28;20063;-67
2021/03/20 04:46:23;;;;;;;;;;;0.20;70.00;;;;;;5070484;28;20033;-68
2021/03/20 04:49:20;;;;;;;30.08;13.85;;;0.20;69.30;;;;;;5068576;28;20226;-66
2021/03/20 04:51:51;;;;;;;23.40;10.30;;;0.30;69.30;;;;;;5060468;28;20045;-66
2021/03/20 04:54:20;;;;;;;25.92;10.75;;;0.30;69.40;;;;;;5069910;28;20107;-67
2021/03/20 04:57:10;;;;;;;24.67;10.93;;;0.30;69.40;;;;;;5069956;28;20021;-66
2021/03/20 04:59:46;;;;;;;28.38;10.65;;;0.40;69.50;;;;;;5072437;28;20032;-67
2021/03/20 05:02:40;;;;;;;21.95;10.88;;;0.50;70.00;;;;;;5071871;28;20021;-67
2021/03/20 05:05:38;;;;;;;21.13;10.68;;;0.50;70.20;;;;;;5069676;28;20063;-66
2021/03/20 05:08:14;;;;;;;20.33;9.50;;;0.50;70.30;;;;;;5069612;28;20025;-67
2021/03/20 05:11:08;;;;;;;20.55;9.55;;;0.50;70.30;;;;;;5069514;28;20028;-66
2021/03/20 05:14:02;;;;;;;26.58;12.63;;;0.50;70.30;;;;;;5051942;28;20036;-67
2021/03/20 05:16:48;;;;;;;33.08;15.50;;;0.60;70.40;;;;;;5074994;28;20452;-66
2021/03/20 05:19:15;;;;;;;28.58;14.63;;;0.60;70.60;;;;;;5082688;28;20032;-67
2021/03/20 05:21:43;;;;;;;28.38;15.60;;;0.60;70.70;;;;;;5088446;28;20048;-67
2021/03/20 05:24:20;;;;;;;26.38;13.38;;;0.60;70.60;;;;;;5088718;28;20106;-66
2021/03/20 05:26:46;;;;;;;27.73;13.10;;;0.70;70.70;;;;;;5089395;28;20039;-67
2021/03/20 05:29:12;;;;;;;31.23;14.43;;;0.80;70.90;;;;;;5089235;28;20024;-66
2021/03/20 05:31:38;;;;;;;;;;;0.80;71.90;;;;;;5089930;28;20043;-65
2021/03/20 05:34:27;;;;;;;18.60;9.80;;;0.80;71.30;;;;;;5089342;28;19947;-66
2021/03/20 05:36:53;;;;;;;17.02;8.20;;;0.90;71.00;;;;;;5089372;28;20095;-66
2021/03/20 05:39:19;;;;;;;16.40;9.38;;;1.10;70.30;;;;;;5089239;28;20714;-66
2021/03/20 05:41:48;;;;;;;20.58;11.05;;;1.10;69.30;;;;;;5089233;28;20090;-66
2021/03/20 05:44:27;;;;;;;25.73;13.35;;;1.30;68.90;;;;;;5089245;28;20044;-66
2021/03/20 05:46:57;;;;;;;24.35;13.95;;;1.30;68.30;;;;;;5089203;28;20471;-66
2021/03/20 05:49:55;;;;;;;24.35;12.55;;;1.50;69.00;;;;;;5088948;28;20058;-65
2021/03/20 05:52:37;;;;;;;25.48;13.07;;;1.50;67.50;;;;;;5088510;28;20032;-67
2021/03/20 05:55:21;;;;;;;22.83;12.95;;;1.70;67.50;;;;;;5088840;28;20028;-66
2021/03/20 05:58:14;;;;;;;22.50;12.80;;;1.90;67.60;;;;;;5088801;28;20032;-67
2021/03/20 06:00:57;;;;;;;36.08;18.50;;;2.10;66.10;;;;;;5087594;28;20055;-66
2021/03/20 06:03:44;;;;;;;29.35;15.75;;;2.20;65.10;;;;;;5088382;28;20062;-67
2021/03/20 06:06:23;;;;;;;33.03;11.95;;;2.30;64.90;;;;;;5088687;28;20024;-66
2021/03/20 06:09:01;;;;;;;23.77;11.23;;;2.40;64.90;;;;;;5088584;28;20039;-67
2021/03/20 06:11:48;;;;;;;32.05;14.13;;;2.40;65.00;;;;;;5088626;28;20028;-67
2021/03/20 06:14:33;;;;;;;27.85;15.40;;;2.30;65.20;;;;;;5088418;28;20024;-67
2021/03/20 06:17:23;;;;;;;35.70;17.35;;;2.40;65.20;;;;;;5088577;28;20028;-66
2021/03/20 06:20:19;;;;;;;26.52;14.82;;;2.50;65.30;;;;;;5088397;28;20107;-65
2021/03/20 06:22:44;;;;;;;28.65;15.80;;;2.80;64.40;;;;;;5088356;28;20435;-67
2021/03/20 06:25:28;;;;;;;;;;;3.30;63.20;;;;;;5088698;28;20492;-67
2021/03/20 06:27:55;;;;;;;24.73;12.32;;;3.90;60.50;;;;;;5088317;28;20371;-67
2021/03/20 06:30:49;;;;;;;14.90;9.25;;;4.50;58.40;;;;;;5086811;28;20088;-66
2021/03/20 06:33:25;;;;;;;15.30;8.15;;;5.20;55.40;;;;;;5087691;28;20790;-67
2021/03/20 06:35:51;;;;;;;;;;;5.80;50.80;;;;;;5087594;28;20080;-67
2021/03/20 06:38:34;;;;;;;20.95;14.30;;;6.30;49.10;;;;;;5088065;28;19974;-67
2021/03/20 06:41:18;;;;;;;11.60;7.03;;;6.90;46.90;;;;;;5087886;28;20056;-67
2021/03/20 06:43:55;;;;;;;15.32;7.68;;;7.70;43.80;;;;;;5087942;28;20032;-67
2021/03/20 06:46:32;;;;;;;20.77;7.78;;;8.20;38.20;;;;;;5086671;28;20020;-66
2021/03/20 06:48:58;;;;;;;33.60;17.65;;;8.50;36.10;;;;;;5088060;28;20028;-68
2021/03/20 06:51:24;;;;;;;14.77;7.25;;;8.40;35.80;;;;;;5087815;28;20028;-67
2021/03/20 06:53:57;;;;;;;23.70;11.45;;;8.90;33.90;;;;;;5087583;28;20097;-67
2021/03/20 06:56:24;;;;;;;34.88;19.27;;;8.70;34.40;;;;;;5087915;28;20103;-66
2021/03/20 06:58:50;;;;;;;15.00;8.27;;;8.50;34.20;;;;;;5086470;28;20097;-67
2021/03/20 07:01:35;;;;;;;;;;;8.80;33.70;;;;;;5088051;28;20449;-67
2021/03/20 07:04:28;;;;;;;21.08;10.60;;;9.00;33.70;;;;;;5086196;28;19920;-68
2021/03/20 07:07:12;;;;;;;14.98;7.88;;;9.30;32.30;;;;;;5087899;28;20099;-67
2021/03/20 07:09:41;;;;;;;14.27;9.15;;;9.00;32.50;;;;;;5087846;28;20081;-67
2021/03/20 07:12:17;;;;;;;11.93;7.72;;;9.00;32.70;;;;;;5087642;28;20059;-66
2021/03/20 07:14:49;;;;;;;11.90;7.30;;;9.40;32.20;;;;;;5087396;28;20503;-67
2021/03/20 07:17:24;;;;;;;11.48;5.40;;;9.60;31.20;;;;;;5073751;28;20028;-66
2021/03/20 07:19:58;;;;;;;8.60;4.22;;;9.60;31.00;;;;;;5066014;28;20124;-66
2021/03/20 07:22:39;;;;;;;12.75;5.07;;;9.60;30.80;;;;;;5067350;28;20035;-67
2021/03/20 07:25:16;;;;;;;8.73;4.78;;;9.50;30.80;;;;;;5078573;28;20028;-67
2021/03/20 07:27:42;;;;;;;7.93;5.10;;;9.70;30.30;;;;;;5067408;28;20628;-67
2021/03/20 07:30:26;;;;;;;;;;;9.60;30.70;;;;;;5068041;28;20032;-66
2021/03/20 07:32:52;;;;;;;12.30;4.90;;;9.70;30.40;;;;;;5067369;28;19908;-67
2021/03/20 07:35:21;;;;;;;;;;;9.40;30.20;;;;;;5068823;28;20044;-67
2021/03/20 07:37:51;;;;;;;11.98;7.03;;;10.00;29.90;;;;;;5081598;28;19921;-67
2021/03/20 07:40:32;;;;;;;19.75;9.02;;;10.20;29.50;;;;;;5087287;28;20436;-67
2021/03/20 07:43:30;;;;;;;11.18;6.32;;;10.30;29.90;;;;;;5087311;28;20036;-67
2021/03/20 07:46:08;;;;;;;12.05;5.35;;;10.30;29.00;;;;;;5042354;28;20086;-67
2021/03/20 07:48:34;;;;;;;14.68;8.32;;;10.00;29.00;;;;;;5090349;28;20035;-67
2021/03/20 07:51:02;;;;;;;;;;;9.80;29.50;;;;;;5091758;28;20028;-67
2021/03/20 07:53:29;;;;;;;9.32;4.25;;;10.30;29.00;;;;;;5075614;28;19920;-67
2021/03/20 07:56:13;;;;;;;11.25;5.80;;;10.70;28.30;;;;;;5070954;28;20031;-67
2021/03/20 07:58:45;;;;;;;11.57;5.38;;;10.80;28.20;;;;;;5070862;28;20051;-66
2021/03/20 08:01:19;;;;;;;10.02;5.13;;;11.30;28.30;;;;;;5070434;28;20036;-66
2021/03/20 08:03:47;;;;;;;14.43;5.45;;;11.70;28.20;;;;;;5070620;28;20057;-66
2021/03/20 08:06:17;;;;;;;13.43;5.70;;;11.80;27.30;;;;;;5070886;28;20102;-67
2021/03/20 08:08:42;;;;;;;12.68;5.93;;;11.80;27.50;;;;;;5070754;28;20107;-66
2021/03/20 08:11:28;;;;;;;;;;;12.00;27.60;;;;;;5071040;28;20388;-66
2021/03/20 08:13:59;;;;;;;32.42;17.83;;;11.60;27.60;;;;;;5070226;28;19908;-66
2021/03/20 08:16:25;;;;;;;12.05;6.20;;;11.10;28.50;;;;;;5070772;28;20766;-67
2021/03/20 08:18:54;;;;;;;73.63;41.28;;;10.60;28.90;;;;;;5070384;28;20052;-65
2021/03/20 08:21:27;;;;;;;50.70;29.33;;;9.70;30.00;;;;;;5069464;28;20560;-68
2021/03/20 08:23:53;;;;;;;27.25;12.65;;;9.20;31.30;;;;;;5069499;28;20141;-66
2021/03/20 08:26:23;;;;;;;;;;;8.90;32.10;;;;;;5070346;28;20033;-66
2021/03/20 08:29:21;;;;;;;12.20;5.70;;;8.60;33.40;;;;;;5067314;28;19920;-66
2021/03/20 08:32:11;;;;;;;14.75;5.90;;;8.20;33.50;;;;;;5055004;28;20580;-66
2021/03/20 08:35:15;;;;;;;14.57;6.80;;;7.60;34.50;;;;;;5069170;28;20388;-66
2021/03/20 08:38:11;;;;;;;13.82;5.90;;;7.40;35.50;;;;;;5066527;28;20226;-66
2021/03/20 08:40:43;;;;;;;11.93;5.43;;;7.40;35.40;;;;;;5069169;28;20052;-66
2021/03/20 08:43:44;;;;;;;21.20;7.50;;;7.20;36.80;;;;;;5067197;28;20127;-66
2021/03/20 08:46:27;;;;;;;33.47;11.13;;;7.30;36.10;;;;;;5069162;28;20036;-66
2021/03/20 08:49:12;;;;;;;25.92;9.50;;;7.20;36.20;;;;;;5069391;28;20068;-66
2021/03/20 08:51:43;;;;;;;6.50;3.33;;;7.20;35.80;;;;;;5069176;28;20047;-66
2021/03/20 08:54:24;;;;;;;9.93;4.20;;;7.30;32.80;;;;;;5068940;28;20203;-66
2021/03/20 08:57:03;;;;;;;13.98;6.90;;;7.60;34.50;;;;;;5068858;28;20415;-66
2021/03/20 08:59:36;;;;;;;16.40;6.80;;;8.20;36.30;;;;;;5068273;28;20070;-66
2021/03/20 09:02:25;;;;;;;13.75;6.32;;;8.00;34.60;;;;;;5067709;28;20111;-66
2021/03/20 09:05:11;;;;;;;14.48;7.95;;;8.20;35.20;;;;;;5064718;28;20136;-67
2021/03/20 09:07:48;;;;;;;22.85;9.32;;;8.00;36.80;;;;;;5068755;28;20439;-66
2021/03/20 09:10:24;;;;;;;18.40;7.32;;;8.10;35.90;;;;;;5067422;28;20050;-66
2021/03/20 09:13:01;;;;;;;18.27;7.93;;;7.70;37.40;;;;;;5068921;28;20578;-66
2021/03/20 09:15:30;;;;;;;11.82;6.53;;;8.10;37.20;;;;;;5064458;28;20036;-66
2021/03/20 09:18:00;;;;;;;15.88;6.60;;;8.40;33.50;;;;;;5068593;28;20036;-68
2021/03/20 09:20:28;;;;;;;12.10;7.03;;;8.10;35.00;;;;;;5068053;28;20033;-69
2021/03/20 09:22:56;;;;;;;26.73;13.95;;;7.80;36.00;;;;;;5069283;28;20040;-65
2021/03/20 09:25:41;;;;;;;13.73;6.70;;;7.90;37.10;;;;;;5069107;28;20555;-66
2021/03/20 09:28:14;;;;;;;14.38;7.95;;;7.60;37.20;;;;;;5069364;28;20461;-66
2021/03/20 09:30:44;;;;;;;8.52;5.00;;;7.50;37.40;;;;;;5069330;28;20413;-66
2021/03/20 09:33:27;;;;;;;15.05;6.30;;;7.10;36.00;;;;;;5069101;28;20048;-66
2021/03/20 09:36:05;;;;;;;12.02;5.88;;;7.10;36.60;;;;;;5069319;28;20016;-66
2021/03/20 09:38:36;;;;;;;11.88;5.55;;;7.10;36.70;;;;;;5069012;28;20028;-66
2021/03/20 09:41:06;;;;;;;10.30;5.63;;;7.00;36.40;;;;;;5063466;28;20102;-66
2021/03/20 09:44:02;;;;;;;9.27;5.00;;;7.10;37.40;;;;;;5068931;28;20032;-66
2021/03/20 09:46:40;;;;;;;8.70;4.68;;;8.00;35.30;;;;;;5068964;28;20025;-67
2021/03/20 09:49:11;;;;;;;8.75;4.72;;;9.20;31.80;;;;;;5068850;28;20115;-66
2021/03/20 09:51:54;;;;;;;7.57;4.55;;;9.20;31.70;;;;;;5067588;28;20350;-67
2021/03/20 09:54:30;;;;;;;10.90;6.00;;;9.30;31.60;;;;;;5067547;28;20068;-67
2021/03/20 09:56:57;;;;;;;11.10;5.63;;;9.80;31.20;;;;;;5068896;28;20047;-66
2021/03/20 09:59:29;;;;;;;11.57;5.35;;;10.30;30.00;;;;;;5067210;28;20301;-67
2021/03/20 10:01:57;;;;;;;12.88;5.85;;;10.50;29.70;;;;;;5068628;28;20485;-66
2021/03/20 10:04:29;;;;;;;9.40;4.63;;;10.80;27.80;;;;;;5068621;28;20074;-66
2021/03/20 10:07:16;;;;;;;9.98;5.25;;;11.00;28.00;;;;;;5068145;28;20020;-66
2021/03/20 10:10:03;;;;;;;8.07;4.50;;;11.70;28.90;;;;;;5068282;28;20021;-67
2021/03/20 10:12:55;;;;;;;7.18;4.82;;;11.90;27.50;;;;;;5068707;28;20024;-66
2021/03/20 10:15:35;;;;;;;7.95;4.35;;;10.70;27.50;;;;;;5066837;28;20029;-65
2021/03/20 10:18:23;;;;;;;12.30;4.43;;;10.20;28.80;;;;;;5068253;28;20044;-66
2021/03/20 10:20:52;;;;;;;9.88;5.82;;;10.10;29.40;;;;;;5068361;28;20021;-67
2021/03/20 10:23:32;;;;;;;15.25;7.80;;;9.80;29.30;;;;;;5068016;28;20417;-67
2021/03/20 10:26:02;;;;;;;10.77;6.05;;;9.40;30.00;;;;;;5068378;28;20028;-65
2021/03/20 10:28:29;;;;;;;11.57;6.40;;;9.00;30.30;;;;;;5068301;28;20050;-67
2021/03/20 10:31:04;;;;;;;12.27;8.02;;;8.60;30.90;;;;;;5068239;28;20093;-65
2021/03/20 10:33:39;;;;;;;195.88;105.25;;;8.50;32.50;;;;;;5066980;28;20654;-66
2021/03/20 10:36:08;;;;;;;16.90;9.77;;;8.60;31.50;;;;;;5067904;28;20029;-66
2021/03/20 10:38:34;;;;;;;10.75;5.78;;;8.80;32.10;;;;;;5067713;28;20024;-66
2021/03/20 10:41:02;;;;;;;;;;;8.50;31.50;;;;;;5068211;28;20048;-66
2021/03/20 10:43:28;;;;;;;7.57;5.00;;;8.30;31.00;;;;;;5068076;28;19967;-67
2021/03/20 10:45:53;;;;;;;;;;;8.00;31.20;;;;;;5068580;28;20433;-67
2021/03/20 10:48:29;;;;;;;8.35;4.55;;;7.80;31.30;;;;;;5068044;28;19908;-66
2021/03/20 10:51:04;;;;;;;8.93;5.15;;;8.10;30.60;;;;;;5066438;28;20111;-66
2021/03/20 10:53:39;;;;;;;14.70;8.23;;;8.00;31.20;;;;;;5067497;28;20636;-67
2021/03/20 10:56:05;;;;;;;16.02;10.30;;;8.00;32.00;;;;;;5067747;28;20028;-67
2021/03/20 10:58:38;;;;;;;;;;;8.30;31.40;;;;;;5067248;28;20036;-67
2021/03/20 11:01:04;;;;;;;18.35;6.20;;;8.40;31.60;;;;;;5067398;28;19939;-65
2021/03/20 11:03:37;;;;;;;;;;;8.60;31.20;;;;;;5067231;28;20048;-66
2021/03/20 11:06:16;;;;;;;7.43;4.65;;;8.70;30.40;;;;;;5066631;28;20057;-67
2021/03/20 11:08:44;;;;;;;11.98;6.10;;;8.80;29.80;;;;;;5067349;28;20111;-66
2021/03/20 11:11:30;;;;;;;8.23;4.97;;;8.80;30.30;;;;;;5067452;28;20539;-66
2021/03/20 11:14:03;;;;;;;8.03;4.43;;;8.90;30.50;;;;;;5067012;28;20035;-67
2021/03/20 11:16:29;;;;;;;8.30;4.57;;;8.80;29.90;;;;;;5067413;28;20597;-67
2021/03/20 11:18:56;;;;;;;;;;;8.70;30.00;;;;;;5067934;28;20036;-67
2021/03/20 11:21:27;;;;;;;9.65;4.97;;;8.70;30.10;;;;;;5067448;28;19908;-67
2021/03/20 11:23:56;;;;;;;6.38;3.90;;;8.60;30.80;;;;;;5071060;28;20050;-66
2021/03/20 11:26:35;;;;;;;9.85;4.55;;;8.70;31.10;;;;;;5071445;28;20055;-66
2021/03/20 11:29:04;;;;;;;10.48;5.15;;;8.60;31.60;;;;;;5071469;28;20039;-66
2021/03/20 11:31:43;;;;;;;12.18;5.38;;;8.50;31.80;;;;;;5071627;28;20024;-68
2021/03/20 11:34:16;;;;;;;9.48;4.75;;;8.50;32.00;;;;;;5071598;28;20036;-66
2021/03/20 11:36:43;;;;;;;9.98;5.90;;;8.30;32.20;;;;;;5071402;28;20484;-67
2021/03/20 11:39:09;;;;;;;15.40;9.10;;;8.20;32.70;;;;;;5071057;28;20035;-67
2021/03/20 11:41:38;;;;;;;13.25;8.18;;;8.00;33.40;;;;;;5070793;28;20159;-67
2021/03/20 11:44:16;;;;;;;15.27;7.53;;;7.90;32.90;;;;;;5069703;28;20641;-66
2021/03/20 11:46:52;;;;;;;13.63;7.20;;;7.80;32.90;;;;;;5071292;28;20097;-67
2021/03/20 11:49:35;;;;;;;8.75;5.00;;;7.80;32.20;;;;;;5070981;28;20032;-67
2021/03/20 11:52:02;;;;;;;14.27;6.03;;;7.40;33.00;;;;;;5070978;28;20115;-66
2021/03/20 11:54:37;;;;;;;13.55;6.82;;;7.20;33.20;;;;;;5070907;28;20024;-67
2021/03/20 11:57:31;;;;;;;15.03;8.77;;;7.00;34.30;;;;;;5070746;28;20060;-65
2021/03/20 11:59:57;;;;;;;11.68;5.85;;;7.10;34.10;;;;;;5063284;28;20033;-67
2021/03/20 12:02:23;;;;;;;10.85;6.13;;;6.90;34.30;;;;;;5071195;28;20382;-67
2021/03/20 12:04:48;;;;;;;;;;;6.80;35.20;;;;;;5071193;28;20501;-64
2021/03/20 12:07:28;;;;;;;9.50;4.47;;;6.50;36.70;;;;;;5070448;28;19961;-66
2021/03/20 12:09:54;;;;;;;9.85;5.05;;;6.20;35.80;;;;;;5078866;28;20137;-66
2021/03/20 12:12:43;;;;;;;7.85;4.68;;;6.00;36.90;;;;;;5090905;28;20081;-65
2021/03/20 12:15:32;;;;;;;13.93;7.43;;;6.10;38.20;;;;;;5090734;28;20032;-67
2021/03/20 12:18:19;;;;;;;21.23;10.85;;;6.20;38.00;;;;;;5072119;28;20465;-67
2021/03/20 12:20:45;;;;;;;8.90;4.90;;;6.30;38.00;;;;;;5067415;28;20047;-67
2021/03/20 12:23:21;;;;;;;;;;;6.50;37.40;;;;;;5071315;28;20052;-66
2021/03/20 12:25:47;;;;;;;10.98;5.53;;;6.50;39.30;;;;;;5082374;28;19904;-67
2021/03/20 12:28:30;;;;;;;;;;;6.50;40.80;;;;;;5089101;28;20468;-66
2021/03/20 12:31:20;;;;;;;10.93;4.68;;;6.70;38.80;;;;;;5088840;28;19915;-67
2021/03/20 12:34:05;;;;;;;7.00;4.57;;;7.10;35.90;;;;;;5087001;28;20195;-66
2021/03/20 12:36:43;;;;;;;13.57;7.88;;;6.90;36.20;;;;;;5088488;28;20127;-67
2021/03/20 12:39:12;;;;;;;9.30;5.65;;;6.90;36.90;;;;;;5087999;28;20614;-67
2021/03/20 12:41:40;;;;;;;13.18;6.32;;;7.10;36.30;;;;;;5088376;28;20382;-69
2021/03/20 12:44:10;;;;;;;20.95;12.07;;;7.20;38.30;;;;;;5087873;28;20036;-66
2021/03/20 12:46:41;;;;;;;20.67;8.63;;;7.20;39.40;;;;;;5088327;28;20553;-68
2021/03/20 12:49:07;;;;;;;77.75;36.95;;;7.40;39.80;;;;;;5086479;28;20066;-66
2021/03/20 12:51:33;;;;;;;30.52;16.10;;;7.20;40.00;;;;;;5087008;28;20032;-66
2021/03/20 12:53:59;;;;;;;;;;;7.00;39.70;;;;;;5088059;28;20454;-67
2021/03/20 12:56:25;;;;;;;21.98;10.00;;;7.10;40.00;;;;;;5077830;28;19912;-67
2021/03/20 12:58:50;;;;;;;10.55;6.15;;;7.50;38.00;;;;;;5075069;28;20030;-67
2021/03/20 13:01:16;;;;;;;11.23;6.18;;;7.60;37.10;;;;;;5080364;28;20036;-67
2021/03/20 13:03:42;;;;;;;;;;;7.30;37.20;;;;;;5085613;28;20044;-65
2021/03/20 13:06:08;;;;;;;17.00;7.28;;;7.10;37.60;;;;;;5087996;28;19915;-66
2021/03/20 13:08:36;;;;;;;18.10;11.60;;;7.10;38.10;;;;;;5086182;28;20093;-66
2021/03/20 13:11:03;;;;;;;10.05;5.07;;;7.20;37.50;;;;;;5086421;28;20052;-66
2021/03/20 13:13:28;;;;;;;11.27;5.13;;;7.20;37.30;;;;;;5085199;28;20032;-66
2021/03/20 13:15:54;;;;;;;;;;;7.20;37.30;;;;;;5087823;28;20030;-66
2021/03/20 13:18:20;;;;;;;52.38;25.13;;;7.20;36.80;;;;;;5087765;28;19996;-66
2021/03/20 13:20:45;;;;;;;17.30;10.27;;;7.20;38.50;;;;;;5084360;28;20163;-67
2021/03/20 13:23:11;;;;;;;15.02;8.60;;;7.20;41.60;;;;;;5077300;28;20066;-66
2021/03/20 13:25:39;;;;;;;11.85;6.80;;;7.50;42.50;;;;;;5066992;28;20035;-65
2021/03/20 13:28:06;;;;;;;13.38;7.32;;;7.60;42.30;;;;;;5081789;28;20457;-66
2021/03/20 13:30:34;;;;;;;13.80;7.07;;;7.60;41.10;;;;;;5077186;28;20667;-67
2021/03/20 13:33:01;;;;;;;34.47;18.75;;;7.30;42.20;;;;;;5074888;28;20092;-67